Time;durP1;ratioP1;P1;durP2;ratioP2;P2;SDS_P1;SDS_P2;PMS_P1;PMS_P2;Temp;Humidity;BMP_temperature;BMP_pressure;BME280_temperature;BME280_humidity;BME280_pressure;Samples;Min_cycle;Max_cycle;Signal;HPM_P1;HPM_P2
2023/04/24 00:00:05;;;;;;;2.47;1.30;;;;;;;;;;5011607;28;20654;-73
2023/04/24 00:02:36;;;;;;;3.20;1.47;;;;;;;;;;5010634;28;20217;-73
2023/04/24 00:05:03;;;;;;;1.43;1.30;;;;;;;;;;5014245;28;20714;-73
2023/04/24 00:07:33;;;;;;;2.13;1.20;;;;;;;;;;5008847;28;20274;-73
2023/04/24 00:09:59;;;;;;;2.17;1.50;;;;;;;;;;5002800;28;20184;-73
2023/04/24 00:12:29;;;;;;;2.47;1.30;;;;;;;;;;5002998;28;20176;-73
2023/04/24 00:15:04;;;;;;;2.10;1.37;;;;;;;;;;5012878;28;20198;-73
2023/04/24 00:17:30;;;;;;;2.23;1.30;;;;;;;;;;5012880;28;20262;-73
2023/04/24 00:20:01;;;;;;;2.27;1.43;;;;;;;;;;5011050;28;20179;-73
2023/04/24 00:22:28;;;;;;;1.20;1.10;;;;;;;;;;5005360;28;20655;-73
2023/04/24 00:24:55;;;;;;;2.00;1.33;;;;;;;;;;5006225;28;20261;-73
2023/04/24 00:27:22;;;;;;;1.77;1.30;;;;;;;;;;5003439;28;20179;-73
2023/04/24 00:29:51;;;;;;;1.47;1.37;;;;;;;;;;4987326;28;20184;-73
2023/04/24 00:32:22;;;;;;;1.73;1.30;;;;;;;;;;5022173;28;20194;-73
2023/04/24 00:34:51;;;;;;;2.10;1.20;;;;;;;;;;5023139;28;20252;-73
2023/04/24 00:37:21;;;;;;;2.53;1.60;;;;;;;;;;5018817;28;20532;-73
2023/04/24 00:39:49;;;;;;;1.67;1.20;;;;;;;;;;5011647;28;20206;-73
2023/04/24 00:42:16;;;;;;;2.30;1.10;;;;;;;;;;4991909;28;20204;-73
2023/04/24 00:44:44;;;;;;;2.50;1.57;;;;;;;;;;5027254;28;20226;-73
2023/04/24 00:47:11;;;;;;;2.27;1.30;;;;;;;;;;5003920;28;20635;-73
2023/04/24 00:49:40;;;;;;;2.10;1.43;;;;;;;;;;5011857;28;20175;-73
2023/04/24 00:52:24;;;;;;;2.00;1.30;;;;;;;;;;5006987;28;20271;-73
2023/04/24 00:54:52;;;;;;;2.20;1.50;;;;;;;;;;5010700;28;20199;-73
2023/04/24 00:57:21;;;;;;;3.47;1.40;;;;;;;;;;4988047;28;20619;-73
2023/04/24 00:59:55;;;;;;;3.13;1.60;;;;;;;;;;5005783;28;20220;-73
2023/04/24 01:02:22;;;;;;;2.17;1.43;;;;;;;;;;5009068;28;20194;-73
2023/04/24 01:04:50;;;;;;;1.90;1.37;;;;;;;;;;5009101;28;20207;-73
2023/04/24 01:07:20;;;;;;;1.57;1.40;;;;;;;;;;5010068;28;20550;-73
2023/04/24 01:09:51;;;;;;;2.70;1.60;;;;;;;;;;5007874;28;20588;-73
2023/04/24 01:12:22;;;;;;;2.50;1.40;;;;;;;;;;5001291;28;20274;-73
2023/04/24 01:14:56;;;;;;;3.37;1.40;;;;;;;;;;5004815;28;20210;-72
2023/04/24 01:17:25;;;;;;;1.53;1.40;;;;;;;;;;5018814;28;20190;-73
2023/04/24 01:19:56;;;;;;;2.20;1.60;;;;;;;;;;5009972;28;20214;-73
2023/04/24 01:22:25;;;;;;;1.43;1.33;;;;;;;;;;5000063;28;20191;-73
2023/04/24 01:24:54;;;;;;;3.00;1.70;;;;;;;;;;5007331;28;20211;-73
2023/04/24 01:27:20;;;;;;;1.90;1.30;;;;;;;;;;5009785;28;20186;-73
2023/04/24 01:29:49;;;;;;;3.57;1.73;;;;;;;;;;5002041;28;20179;-74
2023/04/24 01:32:18;;;;;;;2.17;1.47;;;;;;;;;;5007828;28;20194;-73
2023/04/24 01:34:45;;;;;;;2.80;1.50;;;;;;;;;;5009019;28;20201;-73
2023/04/24 01:37:12;;;;;;;3.47;1.30;;;;;;;;;;5009777;28;20187;-73
2023/04/24 01:39:41;;;;;;;2.50;1.50;;;;;;;;;;5004689;28;20195;-73
2023/04/24 01:42:18;;;;;;;2.70;1.40;;;;;;;;;;4999296;28;20187;-73
2023/04/24 01:44:47;;;;;;;1.83;1.40;;;;;;;;;;4999603;28;20235;-73
2023/04/24 01:47:14;;;;;;;3.43;1.40;;;;;;;;;;4988187;28;20191;-73
2023/04/24 01:49:40;;;;;;;2.70;1.50;;;;;;;;;;5003481;28;20230;-73
2023/04/24 01:52:10;;;;;;;2.43;1.60;;;;;;;;;;5003212;28;20211;-73
2023/04/24 01:54:36;;;;;;;1.40;1.30;;;;;;;;;;5001910;28;20191;-73
2023/04/24 01:57:02;;;;;;;2.30;1.43;;;;;;;;;;4983992;28;20795;-73
2023/04/24 01:59:36;;;;;;;1.80;1.47;;;;;;;;;;5007711;28;20631;-73
2023/04/24 02:02:05;;;;;;;4.87;1.30;;;;;;;;;;5007381;28;20183;-73
2023/04/24 02:04:31;;;;;;;2.63;1.67;;;;;;;;;;5007709;28;20745;-73
2023/04/24 02:06:58;;;;;;;2.23;1.47;;;;;;;;;;5008558;28;20187;-73
2023/04/24 02:09:25;;;;;;;1.80;1.20;;;;;;;;;;5000583;28;20265;-73
2023/04/24 02:11:51;;;;;;;3.33;1.40;;;;;;;;;;5006304;28;20646;-73
2023/04/24 02:14:22;;;;;;;3.70;1.30;;;;;;;;;;5006854;28;20184;-73
2023/04/24 02:16:48;;;;;;;1.57;1.33;;;;;;;;;;4978248;28;20302;-73
2023/04/24 02:19:18;;;;;;;2.30;1.43;;;;;;;;;;5007774;28;20283;-73
2023/04/24 02:21:44;;;;;;;1.83;1.40;;;;;;;;;;5003138;28;20194;-73
2023/04/24 02:24:16;;;;;;;1.97;1.50;;;;;;;;;;5008430;28;20547;-73
2023/04/24 02:26:43;;;;;;;2.20;1.47;;;;;;;;;;4998530;28;20207;-73
2023/04/24 02:29:10;;;;;;;3.63;1.57;;;;;;;;;;5007272;28;20183;-73
2023/04/24 02:31:39;;;;;;;2.50;1.40;;;;;;;;;;5006428;28;20207;-73
2023/04/24 02:34:11;;;;;;;2.73;1.53;;;;;;;;;;5000004;28;20198;-73
2023/04/24 02:36:37;;;;;;;4.20;1.37;;;;;;;;;;4994582;28;20240;-73
2023/04/24 02:39:06;;;;;;;2.77;1.60;;;;;;;;;;5007468;28;20222;-73
2023/04/24 02:41:33;;;;;;;3.57;1.50;;;;;;;;;;5003321;28;20241;-73
2023/04/24 02:43:59;;;;;;;2.53;1.67;;;;;;;;;;5008771;28;20237;-74
2023/04/24 02:46:38;;;;;;;3.03;1.40;;;;;;;;;;5007369;28;20199;-73
2023/04/24 02:49:04;;;;;;;2.20;1.60;;;;;;;;;;5004652;28;20187;-73
2023/04/24 02:51:41;;;;;;;2.50;1.60;;;;;;;;;;5010483;28;20202;-73
2023/04/24 02:54:11;;;;;;;4.07;1.80;;;;;;;;;;5004089;28;20369;-73
2023/04/24 02:56:43;;;;;;;5.33;1.73;;;;;;;;;;5009326;28;20207;-73
2023/04/24 02:59:13;;;;;;;2.80;2.03;;;;;;;;;;5007551;28;20219;-73
2023/04/24 03:01:39;;;;;;;3.47;1.80;;;;;;;;;;5005954;28;20667;-73
2023/04/24 03:04:05;;;;;;;3.23;1.90;;;;;;;;;;5011168;28;20223;-73
2023/04/24 03:06:32;;;;;;;3.50;1.70;;;;;;;;;;5000296;28;20523;-73
2023/04/24 03:09:02;;;;;;;4.40;1.80;;;;;;;;;;5010599;28;20179;-73
2023/04/24 03:11:29;;;;;;;2.10;1.50;;;;;;;;;;5006279;28;20328;-73
2023/04/24 03:13:58;;;;;;;2.03;1.50;;;;;;;;;;5001604;28;20195;-73
2023/04/24 03:16:27;;;;;;;3.83;1.77;;;;;;;;;;4999181;28;20281;-73
2023/04/24 03:18:55;;;;;;;1.97;1.47;;;;;;;;;;5011248;28;20195;-73
2023/04/24 03:21:27;;;;;;;1.87;1.50;;;;;;;;;;4998654;28;20192;-73
2023/04/24 03:23:56;;;;;;;2.57;1.53;;;;;;;;;;4990710;28;20231;-73
2023/04/24 03:26:26;;;;;;;4.43;1.67;;;;;;;;;;5007299;28;20563;-73
2023/04/24 03:29:07;;;;;;;2.93;1.67;;;;;;;;;;5007034;28;20635;-73
2023/04/24 03:31:34;;;;;;;3.33;1.47;;;;;;;;;;5008934;28;20663;-73
2023/04/24 03:34:01;;;;;;;2.53;1.60;;;;;;;;;;5009041;28;20662;-73
2023/04/24 03:36:28;;;;;;;3.33;1.67;;;;;;;;;;4999254;28;20212;-73
2023/04/24 03:38:57;;;;;;;1.70;1.60;;;;;;;;;;5009448;28;20191;-73
2023/04/24 03:41:32;;;;;;;2.30;1.60;;;;;;;;;;5013569;28;20276;-73
2023/04/24 03:44:14;;;;;;;2.10;1.90;;;;;;;;;;5024014;28;20627;-73
2023/04/24 03:46:44;;;;;;;2.53;1.80;;;;;;;;;;4991218;28;20219;-73
2023/04/24 03:49:10;;;;;;;3.17;2.03;;;;;;;;;;4991546;28;20183;-73
2023/04/24 03:51:41;;;;;;;3.13;1.93;;;;;;;;;;5000289;28;20183;-73
2023/04/24 03:54:17;;;;;;;2.40;1.80;;;;;;;;;;4992509;28;20187;-73
2023/04/24 03:56:47;;;;;;;3.50;2.20;;;;;;;;;;4987907;28;20215;-73
2023/04/24 03:59:14;;;;;;;2.27;2.00;;;;;;;;;;5004014;28;20213;-73
2023/04/24 04:01:42;;;;;;;3.30;2.27;;;;;;;;;;5007481;28;20187;-73
2023/04/24 04:04:16;;;;;;;2.73;1.97;;;;;;;;;;5007206;28;20747;-72
2023/04/24 04:06:47;;;;;;;2.30;2.10;;;;;;;;;;5010593;28;20209;-72
2023/04/24 04:09:16;;;;;;;4.87;2.53;;;;;;;;;;5009997;28;20561;-73
2023/04/24 04:11:50;;;;;;;3.07;2.20;;;;;;;;;;5005661;28;20175;-73
2023/04/24 04:14:19;;;;;;;2.73;2.27;;;;;;;;;;5010288;28;20189;-72
2023/04/24 04:16:48;;;;;;;2.80;2.23;;;;;;;;;;5010874;28;20214;-73
2023/04/24 04:19:15;;;;;;;3.20;2.63;;;;;;;;;;5010901;28;20183;-72
2023/04/24 04:21:41;;;;;;;3.17;2.53;;;;;;;;;;5004822;28;20222;-73
2023/04/24 04:24:16;;;;;;;4.17;2.73;;;;;;;;;;5009818;28;20206;-72
2023/04/24 04:26:46;;;;;;;3.63;2.57;;;;;;;;;;5008873;28;20210;-73
2023/04/24 04:29:18;;;;;;;3.90;2.80;;;;;;;;;;5009403;28;20237;-72
2023/04/24 04:31:53;;;;;;;3.00;2.70;;;;;;;;;;5004520;28;20172;-73
2023/04/24 04:34:22;;;;;;;3.47;3.13;;;;;;;;;;5003971;28;20330;-73
2023/04/24 04:36:52;;;;;;;4.30;2.93;;;;;;;;;;5006776;28;20211;-73
2023/04/24 04:39:44;;;;;;;3.90;3.30;;;;;;;;;;4998547;28;20237;-73
2023/04/24 04:42:19;;;;;;;3.60;3.30;;;;;;;;;;5008310;28;20252;-72
2023/04/24 04:44:53;;;;;;;3.20;2.90;;;;;;;;;;5004331;28;20281;-72
2023/04/24 04:47:26;;;;;;;3.93;3.27;;;;;;;;;;5007068;28;20179;-73
2023/04/24 04:49:59;;;;;;;3.53;3.23;;;;;;;;;;5004678;28;20608;-78
2023/04/24 04:52:30;;;;;;;4.47;4.07;;;;;;;;;;4983156;28;20189;-76
2023/04/24 04:55:18;;;;;;;4.27;3.87;;;;;;;;;;5009932;28;20215;-76
2023/04/24 04:58:07;;;;;;;4.37;3.53;;;;;;;;;;5001523;28;20191;-76
2023/04/24 05:00:37;;;;;;;4.50;3.97;;;;;;;;;;5005454;28;20180;-74
2023/04/24 05:03:11;;;;;;;4.20;3.33;;;;;;;;;;4996799;28;20590;-74
2023/04/24 05:05:40;;;;;;;3.50;3.20;;;;;;;;;;5000534;28;20571;-74
2023/04/24 05:08:13;;;;;;;4.03;3.63;;;;;;;;;;4994483;28;20179;-74
2023/04/24 05:10:44;;;;;;;4.00;3.53;;;;;;;;;;5000381;28;20586;-74
2023/04/24 05:13:11;;;;;;;4.50;3.40;;;;;;;;;;5002456;28;20195;-74
2023/04/24 05:15:40;;;;;;;4.90;3.50;;;;;;;;;;4985645;28;20253;-74
2023/04/24 05:18:09;;;;;;;3.50;2.97;;;;;;;;;;5000372;28;20192;-74
2023/04/24 05:20:43;;;;;;;4.43;3.40;;;;;;;;;;5007354;28;20195;-74
2023/04/24 05:23:13;;;;;;;4.93;3.07;;;;;;;;;;5021679;28;20220;-74
2023/04/24 05:25:46;;;;;;;4.07;3.00;;;;;;;;;;5008463;28;20293;-74
2023/04/24 05:28:17;;;;;;;3.57;3.27;;;;;;;;;;4989152;28;20271;-74
2023/04/24 05:30:48;;;;;;;3.90;3.30;;;;;;;;;;5005590;28;20669;-74
2023/04/24 05:33:16;;;;;;;4.80;3.50;;;;;;;;;;5006770;28;20310;-74
2023/04/24 05:35:46;;;;;;;5.20;3.40;;;;;;;;;;5001816;28;20226;-72
2023/04/24 05:38:19;;;;;;;5.97;3.40;;;;;;;;;;5003761;28;20660;-72
2023/04/24 05:40:46;;;;;;;4.20;3.17;;;;;;;;;;5005504;28;20191;-72
2023/04/24 05:43:13;;;;;;;3.87;3.10;;;;;;;;;;5008487;28;20666;-72
2023/04/24 05:45:41;;;;;;;5.33;3.27;;;;;;;;;;5006802;28;20755;-72
2023/04/24 05:48:08;;;;;;;4.83;3.00;;;;;;;;;;5007070;28;20589;-72
2023/04/24 05:50:37;;;;;;;3.67;3.37;;;;;;;;;;5001730;28;20662;-73
2023/04/24 05:53:06;;;;;;;4.17;3.70;;;;;;;;;;4991927;28;20650;-73
2023/04/24 05:55:36;;;;;;;3.77;3.47;;;;;;;;;;4996583;28;20213;-73
2023/04/24 05:58:06;;;;;;;3.77;3.30;;;;;;;;;;5023058;28;20219;-73
2023/04/24 06:00:39;;;;;;;5.77;3.70;;;;;;;;;;5015616;28;20215;-74
2023/04/24 06:03:08;;;;;;;4.67;3.50;;;;;;;;;;4996395;28;20181;-74
2023/04/24 06:05:35;;;;;;;4.50;3.87;;;;;;;;;;5005244;28;20301;-73
2023/04/24 06:08:03;;;;;;;4.40;4.00;;;;;;;;;;5009333;28;20317;-73
2023/04/24 06:10:33;;;;;;;4.73;3.77;;;;;;;;;;5002368;28;20179;-73
2023/04/24 06:13:03;;;;;;;4.27;3.70;;;;;;;;;;5003388;28;20194;-73
2023/04/24 06:15:32;;;;;;;6.23;4.27;;;;;;;;;;5006937;28;20793;-73
2023/04/24 06:18:09;;;;;;;5.33;4.63;;;;;;;;;;5004324;28;20193;-73
2023/04/24 06:20:37;;;;;;;5.47;4.90;;;;;;;;;;4996293;28;20184;-74
2023/04/24 06:23:06;;;;;;;6.73;5.47;;;;;;;;;;5020093;28;20188;-74
2023/04/24 06:25:36;;;;;;;6.40;5.27;;;;;;;;;;5016591;28;20753;-74
2023/04/24 06:28:06;;;;;;;6.47;5.57;;;;;;;;;;5016414;28;20325;-73
2023/04/24 06:30:33;;;;;;;5.10;4.57;;;;;;;;;;5018748;28;20194;-74
2023/04/24 06:33:02;;;;;;;6.33;5.50;;;;;;;;;;5021435;28;20197;-74
2023/04/24 06:35:29;;;;;;;9.27;5.03;;;;;;;;;;5022662;28;20211;-74
2023/04/24 06:37:56;;;;;;;6.97;5.10;;;;;;;;;;5000694;28;20227;-74
2023/04/24 06:40:24;;;;;;;4.83;3.90;;;;;;;;;;5018495;28;20184;-74
2023/04/24 06:42:54;;;;;;;4.93;4.30;;;;;;;;;;5017601;28;20601;-73
2023/04/24 06:45:23;;;;;;;4.90;4.47;;;;;;;;;;5017690;28;20210;-74
2023/04/24 06:47:52;;;;;;;4.67;4.27;;;;;;;;;;5021832;28;20185;-74
2023/04/24 06:50:18;;;;;;;4.93;4.30;;;;;;;;;;5021153;28;20188;-74
2023/04/24 06:52:45;;;;;;;5.50;4.27;;;;;;;;;;5012178;28;20182;-73
2023/04/24 06:55:12;;;;;;;4.73;3.87;;;;;;;;;;5013232;28;20211;-74
2023/04/24 06:57:42;;;;;;;4.73;4.13;;;;;;;;;;5022326;28;20198;-74
2023/04/24 07:00:11;;;;;;;5.80;4.13;;;;;;;;;;5020242;28;20178;-73
2023/04/24 07:02:37;;;;;;;6.50;5.53;;;;;;;;;;5001813;28;20198;-73
2023/04/24 07:05:08;;;;;;;5.77;5.00;;;;;;;;;;5016062;28;20222;-73
2023/04/24 07:07:40;;;;;;;4.57;3.70;;;;;;;;;;5015774;28;20273;-73
2023/04/24 07:10:06;;;;;;;5.53;3.60;;;;;;;;;;5014240;28;20194;-74
2023/04/24 07:12:33;;;;;;;4.07;3.17;;;;;;;;;;5021243;28;20266;-73
2023/04/24 07:15:05;;;;;;;3.97;2.97;;;;;;;;;;5015805;28;20214;-74
2023/04/24 07:17:35;;;;;;;3.47;2.90;;;;;;;;;;5011955;28;20183;-74
2023/04/24 07:20:02;;;;;;;3.20;2.90;;;;;;;;;;4998986;28;20194;-73
2023/04/24 07:22:29;;;;;;;2.47;2.27;;;;;;;;;;5017324;28;20265;-74
2023/04/24 07:24:55;;;;;;;3.27;2.57;;;;;;;;;;5019449;28;20435;-73
2023/04/24 07:27:22;;;;;;;2.30;2.10;;;;;;;;;;5010276;28;20195;-73
2023/04/24 07:29:51;;;;;;;3.03;2.20;;;;;;;;;;5017506;28;20194;-73
2023/04/24 07:32:21;;;;;;;3.37;2.27;;;;;;;;;;5013470;28;20665;-74
2023/04/24 07:34:48;;;;;;;2.60;2.40;;;;;;;;;;5018525;28;20198;-76
2023/04/24 07:37:15;;;;;;;2.40;2.20;;;;;;;;;;5018603;28;20182;-73
2023/04/24 07:39:44;;;;;;;2.40;2.20;;;;;;;;;;5016468;28;20741;-74
2023/04/24 07:42:11;;;;;;;2.07;1.90;;;;;;;;;;5017849;28;20663;-73
2023/04/24 07:44:37;;;;;;;2.73;2.20;;;;;;;;;;5015633;28;20231;-73
2023/04/24 07:47:04;;;;;;;2.40;2.20;;;;;;;;;;5018464;28;20182;-73
2023/04/24 07:49:43;;;;;;;2.67;2.27;;;;;;;;;;5016961;28;20667;-73
2023/04/24 07:52:18;;;;;;;2.87;2.27;;;;;;;;;;5012148;28;20266;-73
2023/04/24 07:54:49;;;;;;;3.00;2.00;;;;;;;;;;5003983;28;20222;-73
2023/04/24 07:57:18;;;;;;;4.33;2.33;;;;;;;;;;5013859;28;20250;-73
2023/04/24 07:59:45;;;;;;;1.90;1.80;;;;;;;;;;5017709;28;20186;-73
2023/04/24 08:02:11;;;;;;;3.77;2.30;;;;;;;;;;5017168;28;20577;-73
2023/04/24 08:04:38;;;;;;;2.20;2.00;;;;;;;;;;5016666;28;20211;-73
2023/04/24 08:07:05;;;;;;;2.20;2.00;;;;;;;;;;5017480;28;20179;-73
2023/04/24 08:09:31;;;;;;;3.43;1.70;;;;;;;;;;5016906;28;20194;-73
2023/04/24 08:11:58;;;;;;;2.10;1.90;;;;;;;;;;5015115;28;20245;-73
2023/04/24 08:14:27;;;;;;;2.00;1.90;;;;;;;;;;5019227;28;20195;-73
2023/04/24 08:16:55;;;;;;;3.50;2.40;;;;;;;;;;5018125;28;20261;-73
2023/04/24 08:19:28;;;;;;;3.10;2.63;;;;;;;;;;5016474;28;20189;-73
2023/04/24 08:21:59;;;;;;;4.90;3.00;;;;;;;;;;5020270;28;20222;-73
2023/04/24 08:24:26;;;;;;;3.13;2.80;;;;;;;;;;5014661;28;20302;-73
2023/04/24 08:26:57;;;;;;;3.67;3.13;;;;;;;;;;5015067;28;20207;-73
2023/04/24 08:29:24;;;;;;;5.77;3.30;;;;;;;;;;5017645;28;20214;-73
2023/04/24 08:31:50;;;;;;;3.53;3.23;;;;;;;;;;5018387;28;20203;-73
2023/04/24 08:34:17;;;;;;;5.33;3.13;;;;;;;;;;5020338;28;20196;-73
2023/04/24 08:36:44;;;;;;;3.70;2.70;;;;;;;;;;5011561;28;20206;-73
2023/04/24 08:39:10;;;;;;;3.10;2.80;;;;;;;;;;5015592;28;20281;-77
2023/04/24 08:41:38;;;;;;;3.70;3.10;;;;;;;;;;5011835;28;20210;-75
2023/04/24 08:44:06;;;;;;;3.67;3.10;;;;;;;;;;5016765;28;20217;-73
2023/04/24 08:46:33;;;;;;;3.53;2.80;;;;;;;;;;5015359;28;20289;-73
2023/04/24 08:49:00;;;;;;;4.97;3.10;;;;;;;;;;5015379;28;20198;-73
2023/04/24 08:51:27;;;;;;;3.93;3.53;;;;;;;;;;5013771;28;20190;-73
2023/04/24 08:53:57;;;;;;;3.90;3.50;;;;;;;;;;5012843;28;20190;-73
2023/04/24 08:56:27;;;;;;;4.43;3.53;;;;;;;;;;5013778;28;20202;-73
2023/04/24 08:58:59;;;;;;;3.43;3.13;;;;;;;;;;5010688;28;20190;-72
2023/04/24 09:01:29;;;;;;;3.77;3.43;;;;;;;;;;5007556;28;20186;-73
2023/04/24 09:04:06;;;;;;;3.93;3.30;;;;;;;;;;5014062;28;20210;-74
2023/04/24 09:06:35;;;;;;;3.50;3.20;;;;;;;;;;5020178;28;20971;-73
2023/04/24 09:09:18;;;;;;;3.67;3.30;;;;;;;;;;5018326;28;20175;-73
2023/04/24 09:11:45;;;;;;;3.87;3.20;;;;;;;;;;5011090;28;20195;-73
2023/04/24 09:14:15;;;;;;;4.00;3.60;;;;;;;;;;5010770;28;20234;-73
2023/04/24 09:16:44;;;;;;;5.20;4.30;;;;;;;;;;5014507;28;20203;-73
2023/04/24 09:19:11;;;;;;;5.60;4.90;;;;;;;;;;5013149;28;20817;-72
2023/04/24 09:21:41;;;;;;;5.10;4.07;;;;;;;;;;5018325;28;20266;-72
2023/04/24 09:24:24;;;;;;;5.10;3.90;;;;;;;;;;5019170;28;20264;-72
2023/04/24 09:27:05;;;;;;;3.60;3.30;;;;;;;;;;5012369;28;20237;-72
2023/04/24 09:29:33;;;;;;;3.53;2.90;;;;;;;;;;5013419;28;20199;-72
2023/04/24 09:32:18;;;;;;;3.63;3.20;;;;;;;;;;5013711;28;20262;-73
2023/04/24 09:34:56;;;;;;;2.80;2.60;;;;;;;;;;5016357;28;20194;-73
2023/04/24 09:37:29;;;;;;;4.33;2.50;;;;;;;;;;5016001;28;20195;-72
2023/04/24 09:40:11;;;;;;;3.27;2.40;;;;;;;;;;5018856;28;20209;-72
2023/04/24 09:42:42;;;;;;;2.30;2.10;;;;;;;;;;5012452;28;20197;-72
2023/04/24 09:45:11;;;;;;;4.07;2.63;;;;;;;;;;5016546;28;20214;-72
2023/04/24 09:47:43;;;;;;;2.53;2.30;;;;;;;;;;5015924;28;20175;-73
2023/04/24 09:50:20;;;;;;;5.40;2.57;;;;;;;;;;5013193;28;20221;-74
2023/04/24 09:52:58;;;;;;;5.50;2.40;;;;;;;;;;5013917;28;20195;-73
2023/04/24 09:55:27;;;;;;;3.43;2.47;;;;;;;;;;5013238;28;20202;-73
2023/04/24 09:58:01;;;;;;;6.37;3.43;;;;;;;;;;5019207;28;20281;-74
2023/04/24 10:00:34;;;;;;;4.17;2.70;;;;;;;;;;5015877;28;20243;-75
2023/04/24 10:03:08;;;;;;;2.70;2.50;;;;;;;;;;5021557;28;20191;-74
2023/04/24 10:05:40;;;;;;;3.43;2.53;;;;;;;;;;5022471;28;20207;-75
2023/04/24 10:08:14;;;;;;;3.40;2.70;;;;;;;;;;5015050;28;20247;-74
2023/04/24 10:10:44;;;;;;;2.73;2.47;;;;;;;;;;5015381;28;20265;-76
2023/04/24 10:13:17;;;;;;;4.17;2.50;;;;;;;;;;5019015;28;20181;-74
2023/04/24 10:15:49;;;;;;;2.77;2.57;;;;;;;;;;5011058;28;20210;-75
2023/04/24 10:18:16;;;;;;;4.70;2.90;;;;;;;;;;5013226;28;20241;-73
2023/04/24 10:20:45;;;;;;;3.10;2.80;;;;;;;;;;5016853;28;20229;-75
2023/04/24 10:23:14;;;;;;;4.27;2.97;;;;;;;;;;5014944;28;20242;-76
2023/04/24 10:25:44;;;;;;;4.40;3.00;;;;;;;;;;5006263;28;20285;-79
2023/04/24 10:28:21;;;;;;;4.13;3.57;;;;;;;;;;5005301;28;20221;-77
2023/04/24 10:30:54;;;;;;;3.90;3.03;;;;;;;;;;5012150;28;20188;-74
2023/04/24 10:33:24;;;;;;;4.33;3.13;;;;;;;;;;5011794;28;20203;-74
2023/04/24 10:35:51;;;;;;;3.70;3.10;;;;;;;;;;5006906;28;20230;-74
2023/04/24 10:38:24;;;;;;;3.77;2.73;;;;;;;;;;5006219;28;20192;-74
2023/04/24 10:40:50;;;;;;;2.40;2.20;;;;;;;;;;5011694;28;20739;-75
2023/04/24 10:43:18;;;;;;;2.30;2.00;;;;;;;;;;5010351;28;20243;-75
2023/04/24 10:46:01;;;;;;;2.77;2.23;;;;;;;;;;5009266;28;20634;-74
2023/04/24 10:48:28;;;;;;;3.80;2.10;;;;;;;;;;5010183;28;20218;-74
2023/04/24 10:50:54;;;;;;;2.30;2.10;;;;;;;;;;5008206;28;20183;-74
2023/04/24 10:53:23;;;;;;;3.60;2.70;;;;;;;;;;5002159;28;20191;-74
2023/04/24 10:56:03;;;;;;;4.27;2.10;;;;;;;;;;5005574;28;20219;-74
2023/04/24 10:58:47;;;;;;;6.67;3.30;;;;;;;;;;5011709;28;20175;-74
2023/04/24 11:01:26;;;;;;;3.03;2.77;;;;;;;;;;5005446;28;20652;-76
2023/04/24 11:03:59;;;;;;;3.17;2.40;;;;;;;;;;5011949;28;20209;-75
2023/04/24 11:06:31;;;;;;;3.10;2.80;;;;;;;;;;5013198;28;20195;-72
2023/04/24 11:09:13;;;;;;;3.10;2.70;;;;;;;;;;5005030;28;20187;-75
2023/04/24 11:11:45;;;;;;;4.63;2.70;;;;;;;;;;5004733;28;20781;-73
2023/04/24 11:14:14;;;;;;;3.60;2.37;;;;;;;;;;5007538;28;20214;-74
2023/04/24 11:16:57;;;;;;;4.50;2.90;;;;;;;;;;5005556;28;20303;-73
2023/04/24 11:19:25;;;;;;;4.10;2.70;;;;;;;;;;5007559;28;20197;-72
2023/04/24 11:21:55;;;;;;;2.90;2.60;;;;;;;;;;5002500;28;20219;-72
2023/04/24 11:24:31;;;;;;;2.83;2.50;;;;;;;;;;5010982;28;20352;-72
2023/04/24 11:27:05;;;;;;;3.87;2.97;;;;;;;;;;5008916;28;20191;-72
2023/04/24 11:29:42;;;;;;;4.17;2.97;;;;;;;;;;5004109;28;20183;-72
2023/04/24 11:32:24;;;;;;;3.83;3.37;;;;;;;;;;5010086;28;20187;-73
2023/04/24 11:34:53;;;;;;;4.60;2.50;;;;;;;;;;4985331;28;20194;-73
2023/04/24 11:37:30;;;;;;;4.40;3.20;;;;;;;;;;5001153;28;20203;-73
2023/04/24 11:39:57;;;;;;;4.37;3.40;;;;;;;;;;5007387;28;20195;-73
2023/04/24 11:42:25;;;;;;;4.67;2.77;;;;;;;;;;4997244;28;20203;-73
2023/04/24 11:44:55;;;;;;;4.53;3.17;;;;;;;;;;5008871;28;20219;-73
2023/04/24 11:47:30;;;;;;;3.77;3.27;;;;;;;;;;5008142;28;20203;-73
2023/04/24 11:50:03;;;;;;;6.07;3.53;;;;;;;;;;5010354;28;20186;-73
2023/04/24 11:52:30;;;;;;;5.20;3.33;;;;;;;;;;5008991;28;20190;-73
2023/04/24 11:54:57;;;;;;;3.37;3.07;;;;;;;;;;5004989;28;20342;-72
2023/04/24 11:57:27;;;;;;;4.53;3.33;;;;;;;;;;5002810;28;20187;-73
2023/04/24 11:59:54;;;;;;;5.77;3.60;;;;;;;;;;5006325;28;20187;-73
2023/04/24 12:02:25;;;;;;;5.97;3.90;;;;;;;;;;5000706;28;20186;-72
2023/04/24 12:04:52;;;;;;;5.97;3.80;;;;;;;;;;5005646;28;20837;-73
2023/04/24 12:07:24;;;;;;;5.67;3.50;;;;;;;;;;5002731;28;20183;-73
2023/04/24 12:09:57;;;;;;;4.13;3.70;;;;;;;;;;4987380;28;20195;-73
2023/04/24 12:12:29;;;;;;;4.80;3.67;;;;;;;;;;4997712;28;20227;-73
2023/04/24 12:14:55;;;;;;;6.10;3.87;;;;;;;;;;4999705;28;20207;-73
2023/04/24 12:17:32;;;;;;;4.93;3.70;;;;;;;;;;5005812;28;20313;-73
2023/04/24 12:20:03;;;;;;;4.43;3.30;;;;;;;;;;5007373;28;20202;-73
2023/04/24 12:22:46;;;;;;;8.53;3.60;;;;;;;;;;5006863;28;20192;-73
2023/04/24 12:25:18;;;;;;;4.40;4.00;;;;;;;;;;5002258;28;20219;-73
2023/04/24 12:27:53;;;;;;;5.20;3.70;;;;;;;;;;5008321;28;20187;-73
2023/04/24 12:30:28;;;;;;;4.93;3.87;;;;;;;;;;5006945;28;20215;-73
2023/04/24 12:32:55;;;;;;;5.13;4.00;;;;;;;;;;5008875;28;20650;-73
2023/04/24 12:35:25;;;;;;;8.53;3.70;;;;;;;;;;5004592;28;20224;-73
2023/04/24 12:38:11;;;;;;;5.80;4.47;;;;;;;;;;5006603;28;20214;-73
2023/04/24 12:40:37;;;;;;;6.10;4.40;;;;;;;;;;5007968;28;20210;-72
2023/04/24 12:43:13;;;;;;;4.50;4.10;;;;;;;;;;5004210;28;20620;-73
2023/04/24 12:45:42;;;;;;;4.90;4.30;;;;;;;;;;5002615;28;20202;-73
2023/04/24 12:48:08;;;;;;;5.00;4.30;;;;;;;;;;5005875;28;20186;-72
2023/04/24 12:50:35;;;;;;;6.13;4.33;;;;;;;;;;5005231;28;20244;-72
2023/04/24 12:53:07;;;;;;;6.90;4.20;;;;;;;;;;5006664;28;20192;-73
2023/04/24 12:55:33;;;;;;;4.33;3.90;;;;;;;;;;5004889;28;22614;-72
2023/04/24 12:58:02;;;;;;;4.40;4.00;;;;;;;;;;5000639;28;20183;-73
2023/04/24 13:00:33;;;;;;;4.87;4.30;;;;;;;;;;5002089;28;20559;-73
2023/04/24 13:03:08;;;;;;;5.80;4.50;;;;;;;;;;5002171;28;20238;-73
2023/04/24 13:05:47;;;;;;;5.37;4.30;;;;;;;;;;4975136;28;20208;-73
2023/04/24 13:08:16;;;;;;;6.23;4.70;;;;;;;;;;4999995;28;20558;-73
2023/04/24 13:10:53;;;;;;;5.13;4.60;;;;;;;;;;5002594;28;20191;-73
2023/04/24 13:13:20;;;;;;;6.43;4.30;;;;;;;;;;5005361;28;20191;-73
2023/04/24 13:15:46;;;;;;;6.07;4.37;;;;;;;;;;4998462;28;20691;-73
2023/04/24 13:18:16;;;;;;;5.37;4.27;;;;;;;;;;5006014;28;20785;-73
2023/04/24 13:20:43;;;;;;;6.67;4.07;;;;;;;;;;5009666;28;20526;-73
2023/04/24 13:23:11;;;;;;;7.43;4.93;;;;;;;;;;5010205;28;20641;-73
2023/04/24 13:25:38;;;;;;;6.03;4.50;;;;;;;;;;5001510;28;20698;-73
2023/04/24 13:28:08;;;;;;;4.03;3.63;;;;;;;;;;5010836;28;20199;-73
2023/04/24 13:30:38;;;;;;;6.00;3.37;;;;;;;;;;5010975;28;20591;-73
2023/04/24 13:33:05;;;;;;;3.60;3.30;;;;;;;;;;5006516;28;20190;-73
2023/04/24 13:35:32;;;;;;;3.77;3.37;;;;;;;;;;5001248;28;20246;-73
2023/04/24 13:38:00;;;;;;;3.47;3.13;;;;;;;;;;4993949;28;20190;-73
2023/04/24 13:40:28;;;;;;;4.50;3.23;;;;;;;;;;4998438;28;20188;-73
2023/04/24 13:43:06;;;;;;;5.57;4.20;;;;;;;;;;5002544;28;20623;-73
2023/04/24 13:45:38;;;;;;;6.60;4.50;;;;;;;;;;4997619;28;20333;-73
2023/04/24 13:48:09;;;;;;;9.40;4.23;;;;;;;;;;5006449;28;20558;-73
2023/04/24 13:50:36;;;;;;;4.80;3.57;;;;;;;;;;5004641;28;20185;-73
2023/04/24 13:53:03;;;;;;;3.73;3.30;;;;;;;;;;5004513;28;20191;-73
2023/04/24 13:55:30;;;;;;;4.20;3.73;;;;;;;;;;5003005;28;20238;-73
2023/04/24 13:58:01;;;;;;;4.50;4.10;;;;;;;;;;4997650;28;20188;-74
2023/04/24 14:00:28;;;;;;;5.33;4.00;;;;;;;;;;5006687;28;20191;-73
2023/04/24 14:02:57;;;;;;;4.90;3.83;;;;;;;;;;5011061;28;20187;-73
2023/04/24 14:05:24;;;;;;;5.40;3.30;;;;;;;;;;5007701;28;20417;-73
2023/04/24 14:07:53;;;;;;;5.37;3.13;;;;;;;;;;5005666;28;20539;-73
2023/04/24 14:10:22;;;;;;;8.43;3.80;;;;;;;;;;5006503;28;20187;-84
2023/04/24 14:12:53;;;;;;;4.83;3.57;;;;;;;;;;5010395;28;20175;-73
2023/04/24 14:15:25;;;;;;;5.87;3.53;;;;;;;;;;4997051;28;20216;-74
2023/04/24 14:17:51;;;;;;;4.10;3.67;;;;;;;;;;4988703;28;20219;-73
2023/04/24 14:20:18;;;;;;;7.60;3.67;;;;;;;;;;5010543;28;20190;-73
2023/04/24 14:22:47;;;;;;;3.83;3.50;;;;;;;;;;5008473;28;20337;-73
2023/04/24 14:25:13;;;;;;;7.50;3.50;;;;;;;;;;5005202;28;20218;-73
2023/04/24 14:27:47;;;;;;;6.57;3.70;;;;;;;;;;5000254;28;20651;-73
2023/04/24 14:30:20;;;;;;;5.43;3.50;;;;;;;;;;5003763;28;20184;-73
2023/04/24 14:32:47;;;;;;;3.70;2.93;;;;;;;;;;4999126;28;20190;-74
2023/04/24 14:35:14;;;;;;;5.23;3.33;;;;;;;;;;5006181;28;20253;-73
2023/04/24 14:37:43;;;;;;;4.10;3.53;;;;;;;;;;4996627;28;20212;-74
2023/04/24 14:40:10;;;;;;;4.27;3.50;;;;;;;;;;5008697;28;20194;-73
2023/04/24 14:42:39;;;;;;;4.87;3.70;;;;;;;;;;5008802;28;20188;-74
2023/04/24 14:45:07;;;;;;;3.97;3.40;;;;;;;;;;5005231;28;20706;-74
2023/04/24 14:47:39;;;;;;;3.50;2.90;;;;;;;;;;5025459;28;20194;-74
2023/04/24 14:50:35;;;;;;;4.00;3.60;;;;;;;;;;4996743;28;20606;-74
2023/04/24 14:53:02;;;;;;;4.73;3.90;;;;;;;;;;5010637;28;20651;-74
2023/04/24 14:55:28;;;;;;;4.00;3.60;;;;;;;;;;5012354;28;20257;-73
2023/04/24 14:57:58;;;;;;;3.93;3.53;;;;;;;;;;5007770;28;20194;-73
2023/04/24 15:00:28;;;;;;;5.97;4.00;;;;;;;;;;5000437;28;20483;-73